createdAt,value
2022-11-05T00:03:31.535Z,12.93
2022-11-05T00:08:52.369Z,13.20
2022-11-05T00:14:14.420Z,11.77
2022-11-05T00:19:17.790Z,13.10
2022-11-05T00:24:38.553Z,12.60
2022-11-05T00:29:43.361Z,12.63
2022-11-05T00:34:46.696Z,12.50
2022-11-05T00:39:50.189Z,13.60
2022-11-05T00:45:03.645Z,12.67
2022-11-05T00:50:07.721Z,17.40
2022-11-05T00:55:11.056Z,12.43
2022-11-05T01:00:16.969Z,13.37
2022-11-05T01:05:20.677Z,12.57
2022-11-05T01:10:24.493Z,33.17
2022-11-05T01:15:29.336Z,27.67
2022-11-05T01:20:32.751Z,41.23
2022-11-05T01:25:36.146Z,14.40
2022-11-05T01:30:41.031Z,11.20
2022-11-05T01:35:45.385Z,10.80
2022-11-05T01:40:48.848Z,10.47
2022-11-05T01:45:55.823Z,30.57
2022-11-05T01:51:01.639Z,14.73
2022-11-05T01:56:10.548Z,11.67
2022-11-05T02:01:15.585Z,12.10
2022-11-05T02:06:19.807Z,11.63
2022-11-05T02:11:23.498Z,12.33
2022-11-05T02:16:40.053Z,12.23
2022-11-05T02:22:17.451Z,11.77
2022-11-05T02:27:30.472Z,12.43
2022-11-05T02:33:04.288Z,12.07
2022-11-05T02:38:10.099Z,11.60
2022-11-05T02:43:19.997Z,11.50
2022-11-05T02:48:31.449Z,12.73
2022-11-05T02:53:42.960Z,11.20
2022-11-05T02:58:46.287Z,11.80
2022-11-05T03:03:53.306Z,12.50
2022-11-05T03:09:36.452Z,13.63
2022-11-05T03:14:45.061Z,11.83
2022-11-05T03:19:54.991Z,10.57
2022-11-05T03:25:04.274Z,11.47
2022-11-05T03:30:11.713Z,11.37
2022-11-05T03:35:20.406Z,11.47
2022-11-05T03:40:25.446Z,12.27
2022-11-05T03:45:34.153Z,13.77
2022-11-05T03:50:46.368Z,14.87
2022-11-05T03:55:55.889Z,11.37
2022-11-05T04:01:02.860Z,10.27
2022-11-05T04:06:26.944Z,10.87
2022-11-05T04:11:47.773Z,10.63
2022-11-05T04:17:10.149Z,10.53
2022-11-05T04:22:32.156Z,10.63
2022-11-05T04:27:35.918Z,10.67
2022-11-05T04:32:39.385Z,12.20
2022-11-05T04:37:44.241Z,12.37
2022-11-05T04:42:47.732Z,12.10
2022-11-05T04:47:51.327Z,14.17
2022-11-05T04:52:56.422Z,13.23
2022-11-05T04:57:59.777Z,11.17
2022-11-05T05:03:03.156Z,10.33
2022-11-05T05:08:08.227Z,10.93
2022-11-05T05:13:13.238Z,15.07
2022-11-05T05:18:16.889Z,12.17
2022-11-05T05:23:21.856Z,10.73
2022-11-05T05:28:25.223Z,9.97
2022-11-05T05:33:28.678Z,11.67
2022-11-05T05:38:33.495Z,12.40
2022-11-05T05:43:36.907Z,10.77
2022-11-05T05:48:40.878Z,10.07
2022-11-05T05:53:45.963Z,10.07
2022-11-05T05:58:49.465Z,12.47
2022-11-05T06:03:52.958Z,12.03
2022-11-05T06:08:58.108Z,12.37
2022-11-05T06:14:02.535Z,13.33
2022-11-05T06:19:06.387Z,13.10
2022-11-05T06:24:12.416Z,12.83
2022-11-05T06:29:16.104Z,12.80
2022-11-05T06:34:19.715Z,12.17
2022-11-05T06:39:24.842Z,12.57
2022-11-05T06:44:28.784Z,12.93
2022-11-05T06:49:34.705Z,13.10
2022-11-05T06:54:39.715Z,14.40
2022-11-05T06:59:43.627Z,14.97
2022-11-05T07:04:47.140Z,14.30
2022-11-05T07:10:03.817Z,14.83
2022-11-05T07:15:08.737Z,15.80
2022-11-05T07:20:13.096Z,15.13
2022-11-05T07:25:18.225Z,14.47
2022-11-05T07:30:21.768Z,18.97
2022-11-05T07:35:25.897Z,16.97
2022-11-05T07:40:31.824Z,17.17
2022-11-05T07:45:35.366Z,15.00
2022-11-05T07:50:42.176Z,16.37
2022-11-05T07:55:47.548Z,15.53
2022-11-05T08:00:51.238Z,16.77
2022-11-05T08:05:54.986Z,16.93
2022-11-05T08:11:06.175Z,16.37
2022-11-05T08:16:11.017Z,16.77
2022-11-05T08:21:14.846Z,16.93
2022-11-05T08:26:24.157Z,16.53
2022-11-05T08:31:28.081Z,17.97
2022-11-05T08:36:31.570Z,19.97
2022-11-05T08:41:36.843Z,18.83
2022-11-05T08:46:41.738Z,17.83
2022-11-05T08:51:46.131Z,17.90
2022-11-05T08:56:51.195Z,17.27
2022-11-05T09:01:54.892Z,18.67
2022-11-05T09:06:58.546Z,19.13
2022-11-05T09:12:12.293Z,18.50
2022-11-05T09:17:18.922Z,17.33
2022-11-05T09:22:22.639Z,17.40
2022-11-05T09:27:27.858Z,17.43
2022-11-05T09:32:32.821Z,16.97
2022-11-05T09:37:36.615Z,16.03
2022-11-05T09:42:46.411Z,15.00
2022-11-05T09:47:52.834Z,14.07
2022-11-05T09:52:56.401Z,13.50
2022-11-05T09:58:03.435Z,14.37
2022-11-05T10:03:11.650Z,13.13
2022-11-05T10:08:20.788Z,15.00
2022-11-05T10:13:31.167Z,20.03
2022-11-05T10:18:37.654Z,10.77
2022-11-05T10:23:41.289Z,12.03
2022-11-05T10:28:46.340Z,12.17
2022-11-05T10:33:52.311Z,11.00
2022-11-05T10:39:00.644Z,10.30
2022-11-05T10:44:18.989Z,10.13
2022-11-05T10:50:17.126Z,10.63
2022-11-05T11:03:15.842Z,9.27
2022-11-05T11:15:42.074Z,7.30
2022-11-05T11:21:29.379Z,8.27
2022-11-05T11:26:58.853Z,8.10
2022-11-05T11:32:34.150Z,8.73
2022-11-05T11:38:06.437Z,10.93
2022-11-05T11:43:31.596Z,7.40
2022-11-05T11:48:51.227Z,8.17
2022-11-05T11:54:02.425Z,7.60
2022-11-05T12:00:07.066Z,7.20
2022-11-05T12:06:01.977Z,7.23
2022-11-05T12:18:49.395Z,8.37
2022-11-05T15:15:03.023Z,2.93
2022-11-05T15:47:04.575Z,2.83
2022-11-05T15:52:44.617Z,2.93
2022-11-05T18:32:46.155Z,5.20
2022-11-05T18:38:33.178Z,5.47
2022-11-05T18:50:40.578Z,5.87
2022-11-05T19:08:01.687Z,5.90
2022-11-05T19:14:05.113Z,9.27
2022-11-05T19:20:14.804Z,8.60
2022-11-05T19:25:19.307Z,6.53
2022-11-05T19:30:27.340Z,7.53
2022-11-05T19:35:39.974Z,6.53
2022-11-05T19:40:48.906Z,7.53
2022-11-05T19:46:01.885Z,6.50
2022-11-05T19:51:10.478Z,6.40
2022-11-05T19:56:22.955Z,7.00
2022-11-05T20:01:33.804Z,7.00
2022-11-05T20:06:41.374Z,7.13
2022-11-05T20:11:46.295Z,8.47
2022-11-05T20:16:57.095Z,6.97
2022-11-05T20:22:04.674Z,6.60
2022-11-05T20:27:21.382Z,6.37
2022-11-05T20:32:32.661Z,5.67
2022-11-05T20:37:53.727Z,5.80
2022-11-05T20:43:01.063Z,5.77
2022-11-05T20:48:10.283Z,5.20
2022-11-05T20:53:25.893Z,4.40
2022-11-05T20:58:37.059Z,3.43
2022-11-05T21:03:47.083Z,3.80
2022-11-05T21:08:57.176Z,3.83
2022-11-05T21:14:05.831Z,5.90
2022-11-05T21:19:16.108Z,6.83
2022-11-05T21:24:21.563Z,5.77
2022-11-05T21:29:33.613Z,4.37
2022-11-05T21:34:56.671Z,3.27
2022-11-05T21:40:03.843Z,3.47
2022-11-05T21:45:10.757Z,2.47
2022-11-05T21:56:36.996Z,3.63
2022-11-05T22:08:03.628Z,3.10
2022-11-05T22:13:47.110Z,3.83
2022-11-05T22:19:02.392Z,9.37
2022-11-05T22:24:21.170Z,7.83
2022-11-05T22:29:31.240Z,8.70
2022-11-05T22:34:35.088Z,9.03
2022-11-05T22:39:53.153Z,9.53
2022-11-05T22:45:05.263Z,7.53
2022-11-05T22:50:25.086Z,9.50
2022-11-05T22:55:38.161Z,9.70
2022-11-05T23:00:55.320Z,10.60
2022-11-05T23:06:10.507Z,9.00
2022-11-05T23:11:52.975Z,7.93
2022-11-05T23:17:43.825Z,8.53
2022-11-05T23:23:31.908Z,7.93
2022-11-05T23:28:55.587Z,7.97
2022-11-05T23:34:02.676Z,8.57
2022-11-05T23:39:48.777Z,10.13
2022-11-05T23:45:32.211Z,9.70
2022-11-05T23:51:03.689Z,10.90
2022-11-05T23:56:15.162Z,10.13
